Time;durP1;ratioP1;P1;durP2;ratioP2;P2;SDS_P1;SDS_P2;PMS_P1;PMS_P2;Temp;Humidity;BMP_temperature;BMP_pressure;BME280_temperature;BME280_humidity;BME280_pressure;Samples;Min_cycle;Max_cycle;Signal;HPM_P1;HPM_P2
2021/12/16 00:10:26;;;;;;;12.23;8.98;;;;;;;;;;5043472;28;20064;-71
2021/12/16 00:29:06;;;;;;;12.33;8.33;;;;;;;;;;5059545;28;20477;-70
2021/12/16 00:33:57;;;;;;;11.00;8.40;;;;;;;;;;5050236;28;20048;-70
2021/12/16 00:37:03;;;;;;;11.50;9.00;;;;;;;;;;5060272;28;20037;-70
2021/12/16 00:40:11;;;;;;;11.07;8.07;;;;;;;;;;5047128;28;20385;-70
2021/12/16 00:43:25;;;;;;;11.53;8.73;;;;;;;;;;5044731;28;20036;-69
2021/12/16 00:50:06;;;;;;;14.77;8.97;;;;;;;;;;5057821;28;20059;-71
2021/12/16 00:56:49;;;;;;;12.93;9.27;;;;;;;;;;5073242;28;20063;-70
2021/12/16 00:59:58;;;;;;;11.05;8.00;;;;;;;;;;5050438;28;20036;-70
2021/12/16 01:10:29;;;;;;;10.57;7.67;;;;;;;;;;5062128;28;20060;-70
2021/12/16 01:34:10;;;;;;;9.20;6.63;;;;;;;;;;5058500;28;20044;-79
2021/12/16 01:47:50;;;;;;;9.67;6.57;;;;;;;;;;5046968;28;20041;-78
2021/12/16 01:51:14;;;;;;;6.80;5.43;;;;;;;;;;5030503;28;20052;-79
2021/12/16 01:57:59;;;;;;;5.47;4.73;;;;;;;;;;5046186;28;20056;-79
2021/12/16 02:04:29;;;;;;;9.17;6.33;;;;;;;;;;5043967;28;20067;-78
2021/12/16 02:37:34;;;;;;;7.07;5.87;;;;;;;;;;5044654;28;20397;-78
2021/12/16 02:40:41;;;;;;;6.50;5.63;;;;;;;;;;5054640;28;20051;-75
2021/12/16 02:44:09;;;;;;;6.70;4.70;;;;;;;;;;5020844;28;20052;-76
2021/12/16 02:50:44;;;;;;;6.87;5.80;;;;;;;;;;5049801;28;20052;-79
2021/12/16 02:53:53;;;;;;;6.77;5.57;;;;;;;;;;5045880;28;20051;-79
2021/12/16 02:57:00;;;;;;;5.70;4.87;;;;;;;;;;5049847;28;20054;-80
2021/12/16 03:00:11;;;;;;;7.23;5.50;;;;;;;;;;5069723;28;20051;-79
2021/12/16 03:03:18;;;;;;;6.90;5.47;;;;;;;;;;5071565;28;20047;-78
2021/12/16 03:06:26;;;;;;;5.83;4.70;;;;;;;;;;5069940;28;20047;-79
2021/12/16 03:13:06;;;;;;;6.10;4.87;;;;;;;;;;5038958;28;20052;-78
2021/12/16 03:16:35;;;;;;;4.77;4.13;;;;;;;;;;5054394;28;20051;-79
2021/12/16 03:36:25;;;;;;;7.20;4.70;;;;;;;;;;5072207;28;20043;-81
2021/12/16 03:39:32;;;;;;;5.10;4.28;;;;;;;;;;5031245;28;20055;-81
2021/12/16 03:42:38;;;;;;;6.70;4.73;;;;;;;;;;5043743;28;20527;-78
2021/12/16 03:49:22;;;;;;;6.03;4.30;;;;;;;;;;5048667;28;20051;-84
2021/12/16 03:52:30;;;;;;;5.57;4.23;;;;;;;;;;5071383;28;20052;-82
2021/12/16 03:55:36;;;;;;;6.73;4.90;;;;;;;;;;5052549;28;20596;-80
2021/12/16 03:58:44;;;;;;;5.77;4.70;;;;;;;;;;5047069;28;20056;-79
2021/12/16 04:01:51;;;;;;;5.00;4.20;;;;;;;;;;5039832;28;20044;-65
2021/12/16 04:05:05;;;;;;;5.23;4.47;;;;;;;;;;5054427;28;20036;-69
2021/12/16 04:08:16;;;;;;;4.53;3.53;;;;;;;;;;5032736;28;20047;-71
2021/12/16 04:11:39;;;;;;;6.03;4.63;;;;;;;;;;5040512;28;20505;-69
2021/12/16 04:14:53;;;;;;;5.57;4.57;;;;;;;;;;5042148;28;20048;-72
2021/12/16 04:18:00;;;;;;;4.80;3.67;;;;;;;;;;5052846;28;20052;-73
2021/12/16 04:21:06;;;;;;;5.30;3.93;;;;;;;;;;5054862;28;20051;-72
2021/12/16 04:24:13;;;;;;;4.80;3.80;;;;;;;;;;5037285;28;20058;-73
2021/12/16 04:27:19;;;;;;;5.60;3.77;;;;;;;;;;5039214;28;20039;-76
2021/12/16 04:30:26;;;;;;;5.03;4.10;;;;;;;;;;5044103;28;20055;-71
2021/12/16 04:33:36;;;;;;;10.00;3.50;;;;;;;;;;5049208;28;20052;-72
2021/12/16 04:36:42;;;;;;;5.70;4.30;;;;;;;;;;5025204;28;20056;-72
2021/12/16 04:39:50;;;;;;;5.03;3.83;;;;;;;;;;5046146;28;20049;-80
2021/12/16 04:43:01;;;;;;;6.30;5.30;;;;;;;;;;5035751;28;20037;-69
2021/12/16 04:46:12;;;;;;;5.40;4.80;;;;;;;;;;5030462;28;20143;-65
2021/12/16 04:49:20;;;;;;;7.57;4.53;;;;;;;;;;5040783;28;20402;-67
2021/12/16 04:52:26;;;;;;;5.87;4.77;;;;;;;;;;5051793;28;20056;-68
2021/12/16 04:55:32;;;;;;;6.53;4.90;;;;;;;;;;5052874;28;20056;-67
2021/12/16 04:58:39;;;;;;;5.70;4.40;;;;;;;;;;5069679;28;20490;-66
2021/12/16 05:01:48;;;;;;;6.45;4.13;;;;;;;;;;5022140;28;20044;-67
2021/12/16 05:05:00;;;;;;;5.70;3.72;;;;;;;;;;5043541;28;20037;-67
2021/12/16 05:08:09;;;;;;;5.70;4.45;;;;;;;;;;5401608;22;20032;-67
2021/12/16 05:11:34;;;;;;;5.00;4.20;;;;;;;;;;5034116;28;20064;-67
2021/12/16 05:14:40;;;;;;;5.78;3.92;;;;;;;;;;5043874;28;20044;-67
2021/12/16 05:17:51;;;;;;;6.63;4.30;;;;;;;;;;5044264;28;20048;-67
2021/12/16 05:20:58;;;;;;;4.95;4.40;;;;;;;;;;5043396;28;20056;-68
2021/12/16 05:24:16;;;;;;;5.15;3.83;;;;;;;;;;5045854;28;20043;-73
2021/12/16 05:27:22;;;;;;;6.20;4.40;;;;;;;;;;5044874;28;20476;-72
2021/12/16 05:30:28;;;;;;;4.25;3.10;;;;;;;;;;5045040;28;20393;-75
2021/12/16 05:33:35;;;;;;;4.82;4.30;;;;;;;;;;5033135;28;20047;-73
2021/12/16 05:36:42;;;;;;;6.20;4.93;;;;;;;;;;5055355;28;20060;-75
2021/12/16 05:39:49;;;;;;;7.00;4.67;;;;;;;;;;5043384;28;20072;-74
2021/12/16 05:43:15;;;;;;;6.83;5.37;;;;;;;;;;5045918;28;20052;-73
2021/12/16 05:46:22;;;;;;;8.10;4.90;;;;;;;;;;5043821;28;20068;-73
2021/12/16 05:49:29;;;;;;;8.00;5.60;;;;;;;;;;5043416;28;20490;-73
2021/12/16 05:52:35;;;;;;;5.53;4.73;;;;;;;;;;5042930;28;20080;-74
2021/12/16 05:55:42;;;;;;;6.37;4.37;;;;;;;;;;5043606;28;20044;-74
2021/12/16 05:58:59;;;;;;;5.17;3.90;;;;;;;;;;5043663;28;20052;-75
2021/12/16 06:02:05;;;;;;;4.30;3.70;;;;;;;;;;5053295;28;20047;-75
2021/12/16 06:05:15;;;;;;;22.10;18.33;;;;;;;;;;5042817;28;20410;-73
2021/12/16 06:08:21;;;;;;;5.87;5.10;;;;;;;;;;5042614;28;20063;-74
2021/12/16 06:11:31;;;;;;;7.23;5.03;;;;;;;;;;5053830;28;20056;-79
2021/12/16 06:28:12;;;;;;;5.50;4.63;;;;;;;;;;5024154;28;20052;-78
2021/12/16 06:31:18;;;;;;;6.47;4.20;;;;;;;;;;5014148;28;20053;-79
2021/12/16 06:34:24;;;;;;;8.03;4.30;;;;;;;;;;5040906;28;20045;-80
2021/12/16 06:37:30;;;;;;;7.77;4.67;;;;;;;;;;5032414;28;20050;-79
2021/12/16 06:40:37;;;;;;;5.83;4.50;;;;;;;;;;5040105;28;20041;-78
2021/12/16 06:44:09;;;;;;;6.93;4.60;;;;;;;;;;5035829;28;20040;-79
2021/12/16 06:47:21;;;;;;;5.72;3.95;;;;;;;;;;5049994;28;20048;-82
2021/12/16 06:50:43;;;;;;;4.80;3.13;;;;;;;;;;5031320;28;20029;-80
2021/12/16 06:54:01;;;;;;;4.93;4.13;;;;;;;;;;5027579;28;20055;-79
2021/12/16 07:00:20;;;;;;;4.90;4.40;;;;;;;;;;5058698;28;20358;-80
2021/12/16 07:03:33;;;;;;;2.97;2.35;;;;;;;;;;5037873;28;20055;-82
2021/12/16 07:06:40;;;;;;;6.77;4.50;;;;;;;;;;5031450;28;20048;-81
2021/12/16 07:09:47;;;;;;;5.00;3.57;;;;;;;;;;5019180;28;20061;-80
2021/12/16 07:12:55;;;;;;;5.00;3.80;;;;;;;;;;5031763;28;20057;-79
2021/12/16 07:16:01;;;;;;;7.20;5.20;;;;;;;;;;5047790;28;20049;-79
2021/12/16 07:19:09;;;;;;;4.67;3.63;;;;;;;;;;5041591;28;20044;-78
2021/12/16 07:22:15;;;;;;;5.53;4.80;;;;;;;;;;5054785;28;20052;-77
2021/12/16 07:25:21;;;;;;;7.23;4.50;;;;;;;;;;5055283;28;20045;-78
2021/12/16 07:28:28;;;;;;;7.83;4.27;;;;;;;;;;5056920;28;20040;-78
2021/12/16 07:31:36;;;;;;;5.77;3.67;;;;;;;;;;5046223;28;20053;-77
2021/12/16 07:34:42;;;;;;;5.97;4.90;;;;;;;;;;5014754;28;20046;-76
2021/12/16 07:37:48;;;;;;;6.20;4.67;;;;;;;;;;5018310;28;20048;-79
2021/12/16 07:40:58;;;;;;;6.47;5.30;;;;;;;;;;5023869;28;20043;-78
2021/12/16 07:44:11;;;;;;;12.23;7.90;;;;;;;;;;5057716;28;20048;-78
2021/12/16 07:47:17;;;;;;;;;;;;;;;;;;5057508;28;20049;-78
2021/12/16 07:50:24;;;;;;;6.57;4.30;;;;;;;;;;5066632;28;19917;-77
2021/12/16 07:53:31;;;;;;;5.70;4.87;;;;;;;;;;5023230;28;20518;-79
2021/12/16 07:56:37;;;;;;;7.57;5.50;;;;;;;;;;5022340;28;20046;-78
2021/12/16 07:59:43;;;;;;;6.63;5.63;;;;;;;;;;5017747;28;20049;-76
2021/12/16 08:02:49;;;;;;;8.67;5.70;;;;;;;;;;5034950;28;20509;-77
2021/12/16 08:05:59;;;;;;;8.03;6.17;;;;;;;;;;5045095;28;20055;-75
2021/12/16 08:09:07;;;;;;;7.53;6.23;;;;;;;;;;5044595;28;20521;-80
2021/12/16 08:12:14;;;;;;;8.33;5.43;;;;;;;;;;5032953;28;20059;-76
2021/12/16 08:15:21;;;;;;;9.07;5.57;;;;;;;;;;5053711;28;20502;-79
2021/12/16 08:18:27;;;;;;;7.70;5.37;;;;;;;;;;5042536;28;20056;-77
2021/12/16 08:21:34;;;;;;;10.73;5.87;;;;;;;;;;5032694;28;20114;-81
2021/12/16 08:24:40;;;;;;;11.57;5.77;;;;;;;;;;5028891;28;20022;-81
2021/12/16 08:27:46;;;;;;;9.70;5.80;;;;;;;;;;5015269;28;20053;-78
2021/12/16 08:30:52;;;;;;;9.70;5.67;;;;;;;;;;5012209;28;20045;-77
2021/12/16 08:33:58;;;;;;;7.00;5.37;;;;;;;;;;5034476;28;20048;-79
2021/12/16 08:37:06;;;;;;;7.57;5.20;;;;;;;;;;5031098;28;20501;-77
2021/12/16 08:40:15;;;;;;;7.33;4.70;;;;;;;;;;5053205;28;20676;-78
2021/12/16 08:43:21;;;;;;;9.20;5.73;;;;;;;;;;5032369;28;20037;-80
2021/12/16 08:46:29;;;;;;;6.80;5.67;;;;;;;;;;5043530;28;20052;-79
2021/12/16 08:49:36;;;;;;;7.40;5.20;;;;;;;;;;5032406;28;20056;-80
2021/12/16 08:52:42;;;;;;;20.63;12.70;;;;;;;;;;5029773;28;20049;-78
2021/12/16 08:55:50;;;;;;;7.43;5.47;;;;;;;;;;5039584;28;20045;-81
2021/12/16 08:58:57;;;;;;;8.97;6.13;;;;;;;;;;5033895;28;20048;-77
2021/12/16 09:02:04;;;;;;;7.93;6.00;;;;;;;;;;5032613;28;20048;-81
2021/12/16 09:05:11;;;;;;;6.53;5.30;;;;;;;;;;5026261;28;20049;-78
2021/12/16 09:08:17;;;;;;;7.23;5.07;;;;;;;;;;5044327;28;20045;-78
2021/12/16 09:11:25;;;;;;;6.73;4.57;;;;;;;;;;5035614;28;20576;-79
2021/12/16 09:14:32;;;;;;;7.80;5.70;;;;;;;;;;5030848;28;20048;-80
2021/12/16 09:17:38;;;;;;;8.63;5.13;;;;;;;;;;5057063;28;20048;-78
2021/12/16 09:20:45;;;;;;;7.80;5.43;;;;;;;;;;5047051;28;20041;-78
2021/12/16 09:23:52;;;;;;;7.97;5.73;;;;;;;;;;5035800;28;20041;-79
2021/12/16 09:26:58;;;;;;;7.23;5.83;;;;;;;;;;5027139;28;20049;-77
2021/12/16 09:30:06;;;;;;;8.77;6.23;;;;;;;;;;5027209;28;20053;-78
2021/12/16 09:33:15;;;;;;;7.60;6.33;;;;;;;;;;5016639;28;20057;-71
2021/12/16 09:36:23;;;;;;;6.87;5.67;;;;;;;;;;5053805;28;20493;-71
2021/12/16 09:39:31;;;;;;;6.80;3.77;;;;;;;;;;5043464;28;20053;-71
2021/12/16 09:42:38;;;;;;;6.50;5.20;;;;;;;;;;5053888;28;20078;-71
2021/12/16 09:45:44;;;;;;;6.80;4.17;;;;;;;;;;5042611;28;20045;-71
2021/12/16 09:48:51;;;;;;;6.63;5.00;;;;;;;;;;5031949;28;20052;-71
2021/12/16 09:51:59;;;;;;;8.33;5.10;;;;;;;;;;5055118;28;20064;-71
2021/12/16 09:55:07;;;;;;;8.20;4.53;;;;;;;;;;5053872;28;20040;-71
2021/12/16 09:58:13;;;;;;;8.77;5.80;;;;;;;;;;5043385;28;20045;-71
2021/12/16 10:01:20;;;;;;;12.10;6.03;;;;;;;;;;5030728;28;20048;-71
2021/12/16 10:04:31;;;;;;;9.73;4.67;;;;;;;;;;5053775;28;20040;-71
2021/12/16 10:07:37;;;;;;;12.60;5.70;;;;;;;;;;5042064;28;20053;-71
2021/12/16 10:10:44;;;;;;;13.67;9.57;;;;;;;;;;5031510;28;20061;-70
2021/12/16 10:14:16;;;;;;;7.30;5.30;;;;;;;;;;5054996;28;20049;-72
2021/12/16 10:17:28;;;;;;;10.43;5.97;;;;;;;;;;5033847;28;20048;-70
2021/12/16 10:20:40;;;;;;;8.07;4.60;;;;;;;;;;5034771;28;20045;-70
2021/12/16 10:23:46;;;;;;;4.53;3.60;;;;;;;;;;5034298;28;20456;-70
2021/12/16 10:27:09;;;;;;;11.23;4.87;;;;;;;;;;5032300;28;20414;-70
2021/12/16 10:30:15;;;;;;;10.70;5.70;;;;;;;;;;5022819;28;20048;-71
2021/12/16 10:33:22;;;;;;;8.43;5.63;;;;;;;;;;5032520;28;20049;-71
2021/12/16 10:36:31;;;;;;;7.03;5.70;;;;;;;;;;5044981;28;20056;-70
2021/12/16 10:39:37;;;;;;;8.37;5.60;;;;;;;;;;5042724;28;20048;-70
2021/12/16 10:42:45;;;;;;;7.00;4.50;;;;;;;;;;5042347;28;20036;-70
2021/12/16 10:45:53;;;;;;;6.50;4.00;;;;;;;;;;5041839;28;20481;-69
2021/12/16 10:49:01;;;;;;;7.57;3.93;;;;;;;;;;5031159;28;20493;-70
2021/12/16 10:52:09;;;;;;;9.40;4.50;;;;;;;;;;5053884;28;20552;-72
2021/12/16 10:55:15;;;;;;;8.93;4.30;;;;;;;;;;5052102;28;20413;-70
2021/12/16 10:58:40;;;;;;;6.57;4.30;;;;;;;;;;5041896;28;20390;-70
2021/12/16 11:01:46;;;;;;;7.28;4.50;;;;;;;;;;5042345;28;20044;-71
2021/12/16 11:04:59;;;;;;;8.52;4.25;;;;;;;;;;5041661;28;20052;-70
2021/12/16 11:08:09;;;;;;;6.82;5.28;;;;;;;;;;5042031;28;20044;-70
2021/12/16 11:11:15;;;;;;;10.00;5.20;;;;;;;;;;5052925;28;20053;-70
2021/12/16 11:14:22;;;;;;;8.90;5.50;;;;;;;;;;5029936;28;20064;-70
2021/12/16 11:17:37;;;;;;;9.47;4.97;;;;;;;;;;5023868;28;20426;-72
2021/12/16 11:20:43;;;;;;;9.77;6.73;;;;;;;;;;5035989;28;20124;-73
2021/12/16 11:23:50;;;;;;;8.17;5.17;;;;;;;;;;5034997;28;20438;-72
2021/12/16 11:26:56;;;;;;;11.23;8.20;;;;;;;;;;5040101;28;20049;-73
2021/12/16 11:30:21;;;;;;;10.97;6.40;;;;;;;;;;5041468;28;20049;-77
2021/12/16 11:33:42;;;;;;;7.87;5.33;;;;;;;;;;5042021;28;20053;-77
2021/12/16 11:36:53;;;;;;;11.17;5.93;;;;;;;;;;5028222;28;20048;-76
2021/12/16 11:39:59;;;;;;;9.73;6.23;;;;;;;;;;5041247;28;20060;-77
2021/12/16 11:43:06;;;;;;;11.37;6.00;;;;;;;;;;5052943;28;20612;-76
2021/12/16 11:46:18;;;;;;;6.27;3.90;;;;;;;;;;5030520;28;20056;-74
2021/12/16 11:49:24;;;;;;;7.33;4.67;;;;;;;;;;5029210;28;20052;-75
2021/12/16 11:52:35;;;;;;;11.73;6.10;;;;;;;;;;5052493;28;20056;-76
2021/12/16 11:55:41;;;;;;;10.97;6.00;;;;;;;;;;5039741;28;20047;-73
2021/12/16 11:58:48;;;;;;;8.30;6.10;;;;;;;;;;5042221;28;20051;-75
2021/12/16 12:01:54;;;;;;;11.47;6.10;;;;;;;;;;5041462;28;20056;-75
2021/12/16 12:05:13;;;;;;;8.67;5.40;;;;;;;;;;5052467;28;20051;-75
2021/12/16 12:08:24;;;;;;;9.23;5.47;;;;;;;;;;5026694;28;20059;-75
2021/12/16 12:11:32;;;;;;;9.00;4.50;;;;;;;;;;5041559;28;20391;-77
2021/12/16 12:14:39;;;;;;;10.67;6.43;;;;;;;;;;5032419;28;20095;-76
2021/12/16 12:17:49;;;;;;;9.17;4.83;;;;;;;;;;5043599;28;20044;-72
2021/12/16 12:21:14;;;;;;;12.67;6.23;;;;;;;;;;5029551;28;20127;-73
2021/12/16 12:24:22;;;;;;;8.37;5.80;;;;;;;;;;5052444;28;20056;-76
2021/12/16 12:27:28;;;;;;;7.60;5.47;;;;;;;;;;5040726;28;20386;-74
2021/12/16 12:30:34;;;;;;;8.50;6.07;;;;;;;;;;5027503;28;20029;-76
2021/12/16 12:33:40;;;;;;;11.80;6.27;;;;;;;;;;5031191;28;20056;-75
2021/12/16 12:36:50;;;;;;;6.40;4.80;;;;;;;;;;5053494;28;20048;-76
2021/12/16 12:40:00;;;;;;;12.73;6.00;;;;;;;;;;5032095;28;20052;-74
2021/12/16 12:43:09;;;;;;;9.33;5.73;;;;;;;;;;5041849;28;20052;-71
2021/12/16 12:46:15;;;;;;;11.70;5.90;;;;;;;;;;5040915;28;20056;-74
2021/12/16 12:49:25;;;;;;;7.53;5.27;;;;;;;;;;5053410;28;20041;-77
2021/12/16 12:52:32;;;;;;;6.90;4.33;;;;;;;;;;5033054;28;20068;-75
2021/12/16 12:55:38;;;;;;;5.83;3.80;;;;;;;;;;5046619;28;20056;-76
2021/12/16 12:58:52;;;;;;;8.57;5.70;;;;;;;;;;5056746;28;20480;-73
2021/12/16 13:01:59;;;;;;;7.13;4.43;;;;;;;;;;5036718;28;20052;-73
2021/12/16 13:05:17;;;;;;;8.67;4.37;;;;;;;;;;5026049;28;20061;-73
2021/12/16 13:08:28;;;;;;;8.23;3.90;;;;;;;;;;5024603;28;20128;-73
2021/12/16 13:11:34;;;;;;;4.50;3.17;;;;;;;;;;5048080;28;20044;-75
2021/12/16 13:14:50;;;;;;;6.77;3.73;;;;;;;;;;5055699;28;20476;-76
2021/12/16 13:27:59;;;;;;;5.03;3.20;;;;;;;;;;5071734;28;20432;-78
2021/12/16 13:31:24;;;;;;;6.37;4.47;;;;;;;;;;5057241;28;20045;-77
2021/12/16 13:34:56;;;;;;;7.43;4.30;;;;;;;;;;5060914;28;20040;-74
2021/12/16 13:38:08;;;;;;;8.07;4.47;;;;;;;;;;5054668;28;20045;-78
2021/12/16 13:41:19;;;;;;;9.20;4.87;;;;;;;;;;5051820;28;20036;-76
2021/12/16 13:44:39;;;;;;;6.03;4.20;;;;;;;;;;5038101;28;20043;-77
2021/12/16 13:48:06;;;;;;;5.10;4.03;;;;;;;;;;5057938;28;20045;-77
2021/12/16 14:02:13;;;;;;;6.50;4.20;;;;;;;;;;5052290;28;20037;-75
2021/12/16 14:08:34;;;;;;;8.30;4.00;;;;;;;;;;5042835;28;20052;-77
2021/12/16 14:35:12;;;;;;;5.57;4.37;;;;;;;;;;5059107;28;20552;-76
2021/12/16 14:42:02;;;;;;;6.27;3.93;;;;;;;;;;5055254;28;20041;-75
2021/12/16 14:48:25;;;;;;;10.90;5.23;;;;;;;;;;5057021;28;20051;-77
2021/12/16 14:51:33;;;;;;;8.10;5.37;;;;;;;;;;5043304;28;20037;-78
2021/12/16 14:54:50;;;;;;;10.63;5.20;;;;;;;;;;5034326;28;20045;-77
2021/12/16 14:57:58;;;;;;;5.97;4.13;;;;;;;;;;5033111;28;20040;-78
2021/12/16 15:01:15;;;;;;;7.83;3.90;;;;;;;;;;5053870;28;20040;-76
2021/12/16 15:04:25;;;;;;;7.37;4.00;;;;;;;;;;5033004;28;20037;-76
2021/12/16 15:07:31;;;;;;;11.20;4.37;;;;;;;;;;5021864;28;20056;-76
2021/12/16 15:10:38;;;;;;;6.23;3.60;;;;;;;;;;5030285;28;20067;-76
2021/12/16 15:13:55;;;;;;;7.20;4.10;;;;;;;;;;5032514;28;20064;-74
2021/12/16 15:42:43;;;;;;;6.20;4.20;;;;;;;;;;5042291;28;20045;-78
2021/12/16 15:44:23;;;;;;;4.73;3.50;;;;;;;;;;5053836;28;20063;-77
2021/12/16 15:47:29;;;;;;;5.77;3.30;;;;;;;;;;5022315;28;20056;-77
2021/12/16 15:50:36;;;;;;;6.73;4.17;;;;;;;;;;5033823;28;20053;-77
2021/12/16 15:53:45;;;;;;;7.40;4.43;;;;;;;;;;5021902;28;20054;-79
2021/12/16 15:57:10;;;;;;;6.60;4.10;;;;;;;;;;5018266;28;20048;-76
2021/12/16 16:00:22;;;;;;;3.97;3.10;;;;;;;;;;5034059;28;20048;-78
2021/12/16 16:03:32;;;;;;;5.07;2.70;;;;;;;;;;5033099;28;20048;-76
2021/12/16 16:07:07;;;;;;;4.37;3.50;;;;;;;;;;5011057;28;20054;-77
2021/12/16 16:10:25;;;;;;;6.30;3.73;;;;;;;;;;5028739;28;20041;-80
2021/12/16 16:13:41;;;;;;;3.40;2.93;;;;;;;;;;5045470;28;20418;-78
2021/12/16 16:16:53;;;;;;;5.22;3.47;;;;;;;;;;5047341;28;20052;-79
2021/12/16 16:20:03;;;;;;;5.37;3.47;;;;;;;;;;5059337;28;20044;-79
2021/12/16 16:23:22;;;;;;;5.13;3.00;;;;;;;;;;5026619;28;20041;-78
2021/12/16 16:26:31;;;;;;;5.10;3.17;;;;;;;;;;5015362;28;20513;-76
2021/12/16 16:29:40;;;;;;;3.87;2.70;;;;;;;;;;5036625;28;20051;-76
2021/12/16 16:33:12;;;;;;;5.03;3.50;;;;;;;;;;5026227;28;20045;-77
2021/12/16 16:36:24;;;;;;;3.67;2.57;;;;;;;;;;5026889;28;20045;-77
2021/12/16 16:44:12;;;;;;;7.63;3.40;;;;;;;;;;5088418;28;20033;-82
2021/12/16 16:47:46;;;;;;;3.73;2.63;;;;;;;;;;5076307;28;20038;-83
2021/12/16 16:51:06;;;;;;;4.17;3.20;;;;;;;;;;5079906;28;20024;-85
2021/12/16 16:54:20;;;;;;;5.40;2.73;;;;;;;;;;5071482;28;20040;-83
2021/12/16 16:57:33;;;;;;;5.73;3.30;;;;;;;;;;5053568;28;20036;-82
2021/12/16 17:00:50;;;;;;;5.57;3.27;;;;;;;;;;5053780;28;20037;-80
2021/12/16 17:04:01;;;;;;;2.63;1.97;;;;;;;;;;5051204;28;20049;-79
2021/12/16 17:07:13;;;;;;;6.67;3.73;;;;;;;;;;5052179;28;20060;-79
2021/12/16 17:10:27;;;;;;;5.83;3.50;;;;;;;;;;5025636;28;20060;-79
2021/12/16 17:14:00;;;;;;;5.10;3.83;;;;;;;;;;5045631;28;20048;-78
2021/12/16 17:17:23;;;;;;;3.80;2.83;;;;;;;;;;5051236;28;20052;-78
2021/12/16 17:20:48;;;;;;;11.23;4.20;;;;;;;;;;5057015;28;20036;-78
2021/12/16 17:36:54;;;;;;;6.07;3.80;;;;;;;;;;5028367;28;20058;-82
2021/12/16 17:40:27;;;;;;;4.60;3.60;;;;;;;;;;5015812;28;20049;-80
2021/12/16 17:43:45;;;;;;;4.03;3.20;;;;;;;;;;5007995;28;20510;-78
2021/12/16 17:47:19;;;;;;;5.47;2.97;;;;;;;;;;5013057;28;20036;-85
2021/12/16 17:50:59;;;;;;;5.60;3.70;;;;;;;;;;5023239;28;20064;-82
2021/12/16 17:54:43;;;;;;;7.20;5.03;;;;;;;;;;5033643;28;20046;-82
2021/12/16 17:58:10;;;;;;;5.07;4.03;;;;;;;;;;5031908;28;20042;-82
2021/12/16 18:01:20;;;;;;;5.40;3.77;;;;;;;;;;5019687;28;20046;-82
2021/12/16 18:04:30;;;;;;;4.80;3.30;;;;;;;;;;5009909;28;20046;-82
2021/12/16 18:07:41;;;;;;;9.13;5.37;;;;;;;;;;5010763;28;20046;-81
2021/12/16 18:14:27;;;;;;;6.27;4.40;;;;;;;;;;4999111;28;20061;-80
2021/12/16 18:17:42;;;;;;;6.77;4.53;;;;;;;;;;5012912;28;20049;-81
2021/12/16 18:20:51;;;;;;;5.60;3.80;;;;;;;;;;5012039;28;20050;-82
2021/12/16 18:24:01;;;;;;;6.37;5.23;;;;;;;;;;5021282;28;20050;-81
2021/12/16 18:27:11;;;;;;;;;;;;;;;;;;5014599;28;20054;-82
2021/12/16 18:30:38;;;;;;;4.40;2.60;;;;;;;;;;5030063;28;19909;-82
2021/12/16 18:33:50;;;;;;;9.97;5.37;;;;;;;;;;5014504;28;20050;-78
2021/12/16 18:36:58;;;;;;;7.27;4.73;;;;;;;;;;5009953;28;20117;-77
2021/12/16 18:40:06;;;;;;;10.43;5.83;;;;;;;;;;4997913;28;20034;-77
2021/12/16 18:43:14;;;;;;;12.47;6.10;;;;;;;;;;5002948;28;20065;-77
2021/12/16 18:46:21;;;;;;;9.73;4.97;;;;;;;;;;4983850;28;20046;-76
2021/12/16 18:49:36;;;;;;;12.80;6.30;;;;;;;;;;5003469;28;20046;-77
2021/12/16 18:56:08;;;;;;;13.80;7.80;;;;;;;;;;5001692;28;20057;-77
2021/12/16 18:59:18;;;;;;;11.40;7.00;;;;;;;;;;5011697;28;20034;-78
2021/12/16 19:02:29;;;;;;;6.80;4.93;;;;;;;;;;5002578;28;20038;-78
2021/12/16 19:05:37;;;;;;;13.37;7.83;;;;;;;;;;4998878;28;20530;-79
2021/12/16 19:08:50;;;;;;;12.63;8.30;;;;;;;;;;5007187;28;20046;-79
2021/12/16 19:12:01;;;;;;;5.60;4.20;;;;;;;;;;5020662;28;20045;-80
2021/12/16 19:15:19;;;;;;;27.17;13.20;;;;;;;;;;5001112;28;20042;-77
2021/12/16 19:18:28;;;;;;;14.93;10.03;;;;;;;;;;5012529;28;20046;-78
2021/12/16 19:21:38;;;;;;;16.53;8.30;;;;;;;;;;5005838;28;20514;-77
2021/12/16 19:24:50;;;;;;;17.30;9.13;;;;;;;;;;4995112;28;20046;-78
2021/12/16 19:27:57;;;;;;;17.53;9.37;;;;;;;;;;5000186;28;20423;-77
2021/12/16 19:31:06;;;;;;;16.03;9.10;;;;;;;;;;5012730;28;20054;-77
2021/12/16 19:34:13;;;;;;;11.27;6.27;;;;;;;;;;4992722;28;20080;-78
2021/12/16 19:37:20;;;;;;;10.17;5.17;;;;;;;;;;5002476;28;20049;-77
2021/12/16 19:40:28;;;;;;;17.33;10.87;;;;;;;;;;4989393;28;20057;-77
2021/12/16 19:43:35;;;;;;;9.20;2.80;;;;;;;;;;5011803;28;20060;-77
2021/12/16 19:46:42;;;;;;;14.67;8.53;;;;;;;;;;5015445;28;20057;-78
2021/12/16 19:49:51;;;;;;;22.23;13.20;;;;;;;;;;5023840;28;20049;-80
2021/12/16 19:56:37;;;;;;;3.83;3.13;;;;;;;;;;5027114;28;20062;-81
2021/12/16 19:59:46;;;;;;;13.57;7.03;;;;;;;;;;5015619;28;20050;-82
2021/12/16 20:02:53;;;;;;;14.43;6.23;;;;;;;;;;5036114;28;20503;-80
2021/12/16 20:06:01;;;;;;;27.57;15.70;;;;;;;;;;5010063;28;20449;-80
2021/12/16 20:09:12;;;;;;;32.20;17.67;;;;;;;;;;5016142;28;20026;-81
2021/12/16 20:12:22;;;;;;;18.67;10.50;;;;;;;;;;5043325;28;20038;-81
2021/12/16 20:15:43;;;;;;;30.25;15.80;;;;;;;;;;5021280;28;20057;-82
2021/12/16 20:18:53;;;;;;;17.07;9.80;;;;;;;;;;5012719;28;20048;-81
2021/12/16 20:22:09;;;;;;;20.38;10.55;;;;;;;;;;5023128;28;20034;-83
2021/12/16 20:25:19;;;;;;;10.37;6.37;;;;;;;;;;5024374;28;20058;-80
2021/12/16 20:28:30;;;;;;;16.80;8.43;;;;;;;;;;5015758;28;20022;-82
2021/12/16 20:32:10;;;;;;;4.80;3.03;;;;;;;;;;5023542;28;20050;-83
2021/12/16 20:35:20;;;;;;;4.13;3.17;;;;;;;;;;5039525;28;20058;-80
2021/12/16 20:38:36;;;;;;;3.23;2.57;;;;;;;;;;5019983;28;20050;-81
2021/12/16 20:41:51;;;;;;;15.47;9.03;;;;;;;;;;5037934;28;20030;-83
2021/12/16 20:49:51;;;;;;;16.23;8.83;;;;;;;;;;5036384;28;20026;-83
2021/12/16 20:53:07;;;;;;;13.43;7.13;;;;;;;;;;5007397;28;20058;-83
2021/12/16 20:56:37;;;;;;;10.80;6.60;;;;;;;;;;5027423;28;20043;-83
2021/12/16 21:03:14;;;;;;;20.80;11.65;;;;;;;;;;525711;26;20370;-84
2021/12/16 21:10:47;;;;;;;5.07;3.67;;;;;;;;;;4998274;28;20053;-81
2021/12/16 21:14:05;;;;;;;19.70;8.53;;;;;;;;;;4992402;28;20051;-82
2021/12/16 21:17:24;;;;;;;3.47;2.47;;;;;;;;;;4990348;28;20042;-83
2021/12/16 21:25:17;;;;;;;8.93;5.30;;;;;;;;;;5001601;28;20031;-83
2021/12/16 21:33:21;;;;;;;13.10;6.63;;;;;;;;;;4971539;28;20039;-83
2021/12/16 21:37:38;;;;;;;11.20;5.23;;;;;;;;;;4978740;28;20043;-83
2021/12/16 21:41:19;;;;;;;8.33;5.63;;;;;;;;;;5000636;28;20054;-81
2021/12/16 21:44:31;;;;;;;10.70;6.82;;;;;;;;;;4990849;28;20058;-81
2021/12/16 21:47:43;;;;;;;12.33;6.70;;;;;;;;;;4979775;28;20050;-82
2021/12/16 21:50:51;;;;;;;4.57;2.73;;;;;;;;;;4990718;28;20035;-81
2021/12/16 21:53:59;;;;;;;10.20;5.60;;;;;;;;;;4979067;28;20064;-81
2021/12/16 21:57:12;;;;;;;19.30;7.47;;;;;;;;;;4979857;28;20062;-83
2021/12/16 22:00:27;;;;;;;11.57;6.97;;;;;;;;;;5001229;28;20035;-81
2021/12/16 22:03:48;;;;;;;5.13;3.27;;;;;;;;;;5000953;28;20469;-86
2021/12/16 22:11:38;;;;;;;7.70;4.27;;;;;;;;;;5000679;28;20050;-84
2021/12/16 22:14:52;;;;;;;8.90;4.57;;;;;;;;;;4990420;28;20042;-83
2021/12/16 22:18:30;;;;;;;22.03;9.00;;;;;;;;;;4990344;28;20045;-83
2021/12/16 22:21:47;;;;;;;20.77;10.20;;;;;;;;;;4989900;28;20047;-83
2021/12/16 22:24:57;;;;;;;15.20;5.90;;;;;;;;;;4990567;28;20035;-83
2021/12/16 22:31:52;;;;;;;24.27;9.93;;;;;;;;;;4964930;28;20035;-83
2021/12/16 22:35:27;;;;;;;7.43;3.40;;;;;;;;;;4991296;28;20039;-83
2021/12/16 22:38:39;;;;;;;8.63;3.93;;;;;;;;;;4980975;28;20043;-84
2021/12/16 22:41:52;;;;;;;8.87;4.63;;;;;;;;;;4999781;28;20041;-85
2021/12/16 22:45:20;;;;;;;18.10;8.87;;;;;;;;;;4989271;28;20045;-86
2021/12/16 22:48:55;;;;;;;10.87;5.87;;;;;;;;;;4989040;28;20059;-84
2021/12/16 22:52:28;;;;;;;16.37;8.43;;;;;;;;;;4989562;28;20045;-83
2021/12/16 22:55:48;;;;;;;10.33;6.63;;;;;;;;;;4960590;28;20043;-84
2021/12/16 22:59:46;;;;;;;6.60;4.40;;;;;;;;;;4971847;28;20027;-83
2021/12/16 23:03:07;;;;;;;6.00;4.53;;;;;;;;;;4980168;28;20051;-84
2021/12/16 23:06:17;;;;;;;10.70;6.80;;;;;;;;;;4980342;28;20039;-84
2021/12/16 23:14:14;;;;;;;4.60;3.20;;;;;;;;;;4980785;28;20042;-83
2021/12/16 23:17:50;;;;;;;5.17;3.77;;;;;;;;;;4979596;28;20065;-82
2021/12/16 23:28:11;;;;;;;8.43;5.83;;;;;;;;;;4976689;28;20038;-82
2021/12/16 23:31:21;;;;;;;10.00;4.50;;;;;;;;;;4976740;28;20029;-82
2021/12/16 23:38:54;;;;;;;7.07;4.40;;;;;;;;;;4997151;28;20046;-81
2021/12/16 23:42:38;;;;;;;13.20;8.33;;;;;;;;;;4975480;28;20050;-81
2021/12/16 23:55:42;;;;;;;4.10;2.93;;;;;;;;;;4986117;28;20043;-83
2021/12/16 23:58:52;;;;;;;6.83;4.07;;;;;;;;;;4975209;28;20034;-83
